createdAt,value
2023-04-09T00:00:12.723Z,70.71
2023-04-09T00:02:39.449Z,70.33
2023-04-09T00:05:07.507Z,70.26
2023-04-09T00:07:34.317Z,70.99
2023-04-09T00:10:00.999Z,70.43
2023-04-09T00:12:27.687Z,70.46
2023-04-09T00:14:54.348Z,70.38
2023-04-09T00:17:21.630Z,69.82
2023-04-09T00:19:48.447Z,70.08
2023-04-09T00:22:15.809Z,69.69
2023-04-09T00:24:42.413Z,69.95
2023-04-09T00:27:08.959Z,70.03
2023-04-09T00:29:35.571Z,69.84
2023-04-09T00:32:02.366Z,69.85
2023-04-09T00:34:29.066Z,70.14
2023-04-09T00:36:55.852Z,69.88
2023-04-09T00:39:22.460Z,70.17
2023-04-09T00:41:49.061Z,70.24
2023-04-09T00:44:15.804Z,69.65
2023-04-09T00:46:42.443Z,70.19
2023-04-09T00:49:09.135Z,70.10
2023-04-09T00:51:36.776Z,69.49
2023-04-09T00:54:03.500Z,69.33
2023-04-09T00:56:30.315Z,68.71
2023-04-09T00:58:57.224Z,68.83
2023-04-09T01:01:23.851Z,69.68
2023-04-09T01:03:51.194Z,69.43
2023-04-09T01:06:38.564Z,69.02
2023-04-09T01:09:23.426Z,68.78
2023-04-09T01:12:08.514Z,68.75
2023-04-09T01:14:41.800Z,69.13
2023-04-09T01:17:17.323Z,69.23
2023-04-09T01:20:05.471Z,69.84
2023-04-09T01:22:47.518Z,69.32
2023-04-09T01:25:26.509Z,69.03
2023-04-09T01:28:08.366Z,68.84
2023-04-09T01:30:35.410Z,68.72
2023-04-09T01:33:04.347Z,68.43
2023-04-09T01:35:31.101Z,68.49
2023-04-09T01:37:58.586Z,68.64
2023-04-09T01:40:25.303Z,69.19
2023-04-09T01:42:53.734Z,69.20
2023-04-09T01:45:21.103Z,69.36
2023-04-09T01:47:48.136Z,68.80
2023-04-09T01:50:15.347Z,68.44
2023-04-09T01:52:42.288Z,69.13
2023-04-09T01:55:09.126Z,68.13
2023-04-09T01:57:35.975Z,68.30
2023-04-09T02:00:02.750Z,67.85
2023-04-09T02:02:40.714Z,67.56
2023-04-09T02:05:10.950Z,67.72
2023-04-09T02:07:45.580Z,68.25
2023-04-09T02:10:13.795Z,68.49
2023-04-09T02:12:45.446Z,68.52
2023-04-09T02:15:12.829Z,68.98
2023-04-09T02:17:39.623Z,69.25
2023-04-09T02:20:07.530Z,68.38
2023-04-09T02:22:34.120Z,68.26
2023-04-09T02:25:00.727Z,68.12
2023-04-09T02:27:27.347Z,67.85
2023-04-09T02:29:53.995Z,67.92
2023-04-09T02:32:20.581Z,67.73
2023-04-09T02:34:47.315Z,67.69
2023-04-09T02:37:13.889Z,68.23
2023-04-09T02:39:40.526Z,68.10
2023-04-09T02:42:08.031Z,67.55
2023-04-09T02:44:35.003Z,68.05
2023-04-09T02:47:04.468Z,67.44
2023-04-09T02:49:31.065Z,67.55
2023-04-09T02:51:57.689Z,66.71
2023-04-09T02:54:24.357Z,67.12
2023-04-09T02:56:51.011Z,66.57
2023-04-09T02:59:17.626Z,66.63
2023-04-09T03:01:44.291Z,66.56
2023-04-09T03:04:11.049Z,67.01
2023-04-09T03:06:37.680Z,66.98
2023-04-09T03:09:04.386Z,66.72
2023-04-09T03:11:30.999Z,66.65
2023-04-09T03:13:57.599Z,66.40
2023-04-09T03:16:27.083Z,67.92
2023-04-09T03:18:53.981Z,67.86
2023-04-09T03:21:21.096Z,66.65
2023-04-09T03:23:47.652Z,66.29
2023-04-09T03:26:14.300Z,66.35
2023-04-09T03:28:40.971Z,66.21
2023-04-09T03:31:07.686Z,66.54
2023-04-09T03:33:34.474Z,66.01
2023-04-09T03:36:01.206Z,66.68
2023-04-09T03:38:27.835Z,65.82
2023-04-09T03:40:56.042Z,65.34
2023-04-09T03:43:22.618Z,65.24
2023-04-09T03:45:49.220Z,65.09
2023-04-09T03:48:15.944Z,65.15
2023-04-09T03:50:42.919Z,64.94
2023-04-09T03:53:09.601Z,64.70
2023-04-09T03:55:37.674Z,64.27
2023-04-09T03:58:04.336Z,63.77
2023-04-09T04:00:30.906Z,64.56
2023-04-09T04:02:57.754Z,64.99
2023-04-09T04:05:27.795Z,65.13
2023-04-09T04:07:55.020Z,64.48
2023-04-09T04:10:21.644Z,65.83
2023-04-09T04:12:48.351Z,65.53
2023-04-09T04:15:15.057Z,65.94
2023-04-09T04:17:41.760Z,65.82
2023-04-09T04:20:08.985Z,66.19
2023-04-09T04:22:35.878Z,66.15
2023-04-09T04:25:03.722Z,67.07
2023-04-09T04:27:30.422Z,68.62
2023-04-09T04:29:59.042Z,67.62
2023-04-09T04:32:26.189Z,67.08
2023-04-09T04:34:52.811Z,67.12
2023-04-09T04:37:19.625Z,67.51
2023-04-09T04:39:46.179Z,67.74
2023-04-09T04:42:12.820Z,67.25
2023-04-09T04:44:39.434Z,67.67
2023-04-09T04:47:06.053Z,68.30
2023-04-09T04:49:32.777Z,68.36
2023-04-09T04:51:59.405Z,69.47
2023-04-09T04:54:26.192Z,69.59
2023-04-09T04:56:52.837Z,69.80
2023-04-09T04:59:19.575Z,69.23
2023-04-09T05:01:46.289Z,69.56
2023-04-09T05:04:12.893Z,69.81
2023-04-09T05:06:39.500Z,68.51
2023-04-09T05:09:06.295Z,69.45
2023-04-09T05:11:32.893Z,69.78
2023-04-09T05:13:59.545Z,68.67
2023-04-09T05:16:26.143Z,68.11
2023-04-09T05:18:52.890Z,67.96
2023-04-09T05:21:19.681Z,68.81
2023-04-09T05:23:46.504Z,68.25
2023-04-09T05:26:13.275Z,68.41
2023-04-09T05:28:39.872Z,69.24
2023-04-09T05:31:12.853Z,69.17
2023-04-09T05:33:39.799Z,71.29
2023-04-09T05:36:06.817Z,69.60
2023-04-09T05:38:33.620Z,75.27
2023-04-09T05:41:00.740Z,76.64
2023-04-09T05:43:27.391Z,75.41
2023-04-09T05:45:54.024Z,72.52
2023-04-09T05:48:21.191Z,71.42
2023-04-09T05:50:55.425Z,70.92
2023-04-09T05:53:22.602Z,69.54
2023-04-09T05:55:51.740Z,69.54
2023-04-09T05:58:21.701Z,68.71
2023-04-09T06:00:48.390Z,70.04
2023-04-09T06:03:15.319Z,68.40
2023-04-09T06:05:42.077Z,69.47
2023-04-09T06:08:09.175Z,69.88
2023-04-09T06:10:35.870Z,70.52
2023-04-09T06:13:02.537Z,69.42
2023-04-09T06:15:29.162Z,69.96
2023-04-09T06:17:57.515Z,68.24
2023-04-09T06:20:25.941Z,67.96
2023-04-09T06:22:52.710Z,67.28
2023-04-09T06:25:19.280Z,65.52
2023-04-09T06:27:46.074Z,67.08
2023-04-09T06:30:12.911Z,65.63
2023-04-09T06:32:50.990Z,63.95
2023-04-09T06:35:21.010Z,64.61
2023-04-09T06:37:47.597Z,64.04
2023-04-09T06:40:14.848Z,64.33
2023-04-09T06:42:41.521Z,65.70
2023-04-09T06:45:08.915Z,67.05
2023-04-09T06:47:36.369Z,66.52
2023-04-09T06:50:03.380Z,65.17
2023-04-09T06:52:30.336Z,64.37
2023-04-09T06:54:56.969Z,63.56
2023-04-09T06:57:23.630Z,63.70
2023-04-09T06:59:50.411Z,63.43
2023-04-09T07:02:17.199Z,62.81
2023-04-09T07:04:43.992Z,61.10
2023-04-09T07:07:10.692Z,60.74
2023-04-09T07:09:37.287Z,61.61
2023-04-09T07:12:03.919Z,61.93
2023-04-09T07:14:30.692Z,60.42
2023-04-09T07:16:57.287Z,63.43
2023-04-09T07:19:23.934Z,62.17
2023-04-09T07:21:51.015Z,60.12
2023-04-09T07:24:17.657Z,60.39
2023-04-09T07:26:44.261Z,59.13
2023-04-09T07:29:11.110Z,59.27
2023-04-09T07:31:37.799Z,57.68
2023-04-09T07:34:04.612Z,57.27
2023-04-09T07:36:31.893Z,57.21
2023-04-09T07:38:58.683Z,55.99
2023-04-09T07:41:25.293Z,55.71
2023-04-09T07:43:52.070Z,55.87
2023-04-09T07:46:20.844Z,56.71
2023-04-09T07:48:48.498Z,59.89
2023-04-09T07:51:15.381Z,57.19
2023-04-09T07:53:42.036Z,57.30
2023-04-09T07:56:08.773Z,56.59
2023-04-09T07:58:37.920Z,59.37
2023-04-09T08:01:04.815Z,60.29
2023-04-09T08:03:31.819Z,57.51
2023-04-09T08:05:58.675Z,56.35
2023-04-09T08:08:25.339Z,55.22
2023-04-09T08:10:52.166Z,59.03
2023-04-09T08:13:18.795Z,57.11
2023-04-09T08:15:45.390Z,53.16
2023-04-09T08:18:11.951Z,54.85
2023-04-09T08:20:44.892Z,57.55
2023-04-09T08:23:12.313Z,56.47
2023-04-09T08:25:38.961Z,55.63
2023-04-09T08:28:06.466Z,57.99
2023-04-09T08:30:34.340Z,56.70
2023-04-09T08:33:02.169Z,53.74
2023-04-09T08:35:31.136Z,53.82
2023-04-09T08:37:57.974Z,56.56
2023-04-09T08:40:24.873Z,55.63
2023-04-09T08:42:56.044Z,56.40
2023-04-09T08:45:22.921Z,54.62
2023-04-09T08:47:51.479Z,54.70
2023-04-09T08:50:18.515Z,53.19
2023-04-09T08:52:48.152Z,53.68
2023-04-09T08:55:14.924Z,55.57
2023-04-09T08:57:42.405Z,58.16
2023-04-09T09:00:09.714Z,59.66
2023-04-09T09:02:36.506Z,58.36
2023-04-09T09:05:03.224Z,59.78
2023-04-09T09:07:30.368Z,56.93
2023-04-09T09:10:03.349Z,56.20
2023-04-09T09:12:38.596Z,56.44
2023-04-09T09:15:15.956Z,54.72
2023-04-09T09:17:55.868Z,56.19
2023-04-09T09:20:23.405Z,56.50
2023-04-09T09:22:55.907Z,57.94
2023-04-09T09:25:24.794Z,58.41
2023-04-09T09:27:52.446Z,57.80
2023-04-09T09:30:26.958Z,57.39
2023-04-09T09:33:05.660Z,56.10
2023-04-09T09:35:50.180Z,55.59
2023-04-09T09:38:17.460Z,52.92
2023-04-09T09:40:44.691Z,53.14
2023-04-09T09:43:13.503Z,54.43
2023-04-09T09:45:43.172Z,52.88
2023-04-09T09:48:12.380Z,51.89
2023-04-09T09:50:43.443Z,53.61
2023-04-09T09:53:11.837Z,52.98
2023-04-09T09:55:40.626Z,51.68
2023-04-09T09:58:23.651Z,50.51
2023-04-09T10:00:52.074Z,52.39
2023-04-09T10:03:25.711Z,49.71
2023-04-09T10:05:53.558Z,51.65
2023-04-09T10:08:22.129Z,51.35
2023-04-09T10:10:50.416Z,51.17
2023-04-09T10:13:25.618Z,53.05
2023-04-09T10:15:53.333Z,50.71
2023-04-09T10:18:20.213Z,50.61
2023-04-09T10:20:56.192Z,50.26
2023-04-09T10:23:32.676Z,51.07
2023-04-09T10:25:59.428Z,50.21
2023-04-09T10:28:25.983Z,49.36
2023-04-09T10:30:53.845Z,47.99
2023-04-09T10:33:28.935Z,48.03
2023-04-09T10:36:05.749Z,48.42
2023-04-09T10:38:40.814Z,48.30
2023-04-09T10:41:15.156Z,48.61
2023-04-09T10:43:41.766Z,49.51
2023-04-09T10:46:29.341Z,48.67
2023-04-09T10:49:35.478Z,48.08
2023-04-09T10:52:04.863Z,48.32
2023-04-09T10:54:34.299Z,46.62
2023-04-09T10:57:18.175Z,46.99
2023-04-09T10:59:47.780Z,47.07
2023-04-09T11:02:35.637Z,45.26
2023-04-09T11:05:17.604Z,46.24
2023-04-09T11:07:48.440Z,44.59
2023-04-09T11:10:15.058Z,43.68
2023-04-09T11:12:43.081Z,46.47
2023-04-09T11:15:17.794Z,46.72
2023-04-09T11:17:44.914Z,45.76
2023-04-09T11:20:12.691Z,45.24
2023-04-09T11:22:39.372Z,45.84
2023-04-09T11:25:06.327Z,44.46
2023-04-09T11:27:38.132Z,44.89
2023-04-09T11:30:06.347Z,44.21
2023-04-09T11:32:34.368Z,44.37
2023-04-09T11:35:01.214Z,44.80
2023-04-09T11:37:28.172Z,47.23
2023-04-09T11:39:57.337Z,47.94
2023-04-09T11:42:25.893Z,51.63
2023-04-09T11:44:53.540Z,49.76
2023-04-09T11:47:21.273Z,51.20
2023-04-09T11:49:47.955Z,50.73
2023-04-09T11:52:16.753Z,46.84
2023-04-09T11:54:49.532Z,47.23
2023-04-09T11:57:16.348Z,47.44
2023-04-09T11:59:43.322Z,48.40
2023-04-09T12:02:10.214Z,47.67
2023-04-09T12:04:37.000Z,48.11
2023-04-09T12:07:08.081Z,48.67
2023-04-09T12:09:34.651Z,49.96
2023-04-09T12:12:02.208Z,50.66
2023-04-09T12:14:28.794Z,49.39
2023-04-09T12:16:55.581Z,47.79
2023-04-09T12:19:25.839Z,48.02
2023-04-09T12:21:54.764Z,47.17
2023-04-09T12:24:23.756Z,47.30
2023-04-09T12:26:50.844Z,47.01
2023-04-09T12:29:21.636Z,45.13
2023-04-09T12:31:48.448Z,44.29
2023-04-09T12:34:15.248Z,45.47
2023-04-09T12:36:41.927Z,44.31
2023-04-09T12:39:11.461Z,44.62
2023-04-09T12:41:38.085Z,44.37
2023-04-09T12:44:05.279Z,43.61
2023-04-09T12:46:32.663Z,41.34
2023-04-09T12:48:59.521Z,42.24
2023-04-09T12:51:26.170Z,44.04
2023-04-09T12:53:53.357Z,42.68
2023-04-09T12:56:20.376Z,44.43
2023-04-09T12:58:46.999Z,44.49
2023-04-09T13:01:13.785Z,43.92
2023-04-09T13:03:41.599Z,45.43
2023-04-09T13:06:08.790Z,45.56
2023-04-09T13:08:35.881Z,44.24
2023-04-09T13:11:02.948Z,43.75
2023-04-09T13:13:29.791Z,45.11
2023-04-09T13:15:56.490Z,43.39
2023-04-09T13:18:23.161Z,43.39
2023-04-09T13:20:49.754Z,46.16
2023-04-09T13:23:16.352Z,44.96
2023-04-09T13:25:42.993Z,46.86
2023-04-09T13:28:09.924Z,45.51
2023-04-09T13:30:36.663Z,43.59
2023-04-09T13:33:03.473Z,42.35
2023-04-09T13:35:30.729Z,42.83
2023-04-09T13:37:57.398Z,41.27
2023-04-09T13:40:24.120Z,39.96
2023-04-09T13:42:50.772Z,44.19
2023-04-09T13:45:18.109Z,44.36
2023-04-09T13:47:44.757Z,42.58
2023-04-09T13:50:13.211Z,42.82
2023-04-09T13:52:39.860Z,42.42
2023-04-09T13:55:07.670Z,43.26
2023-04-09T13:57:34.310Z,43.96
2023-04-09T14:00:05.484Z,43.27
2023-04-09T14:02:32.841Z,43.56
2023-04-09T14:05:00.197Z,42.74
2023-04-09T14:07:26.822Z,42.63
2023-04-09T14:09:53.543Z,43.19
2023-04-09T14:12:20.435Z,42.94
2023-04-09T14:14:47.176Z,42.79
2023-04-09T14:17:13.768Z,45.57
2023-04-09T14:19:40.453Z,43.93
2023-04-09T14:22:11.568Z,45.50
2023-04-09T14:24:40.181Z,48.11
2023-04-09T14:27:08.245Z,53.53
2023-04-09T14:29:35.288Z,57.20
2023-04-09T14:32:02.226Z,56.35
2023-04-09T14:34:31.413Z,55.32
2023-04-09T14:36:58.113Z,57.43
2023-04-09T14:39:24.860Z,56.79
2023-04-09T14:41:51.874Z,58.46
2023-04-09T14:44:18.506Z,58.11
2023-04-09T14:46:45.097Z,59.19
2023-04-09T14:49:11.808Z,59.74
2023-04-09T14:51:38.507Z,59.61
2023-04-09T14:54:05.176Z,59.01
2023-04-09T14:56:31.819Z,60.45
2023-04-09T14:58:58.515Z,59.28
2023-04-09T15:01:26.800Z,57.17
2023-04-09T15:03:53.705Z,58.51
2023-04-09T15:06:20.753Z,59.18
2023-04-09T15:08:47.426Z,58.58
2023-04-09T15:11:18.007Z,58.56
2023-04-09T15:13:44.714Z,58.41
2023-04-09T15:16:11.856Z,58.48
2023-04-09T15:18:38.565Z,57.77
2023-04-09T15:21:05.551Z,57.96
2023-04-09T15:23:32.235Z,58.84
2023-04-09T15:25:59.169Z,59.51
2023-04-09T15:28:25.752Z,60.77
2023-04-09T15:30:54.976Z,60.72
2023-04-09T15:33:21.540Z,60.41
2023-04-09T15:35:48.237Z,59.55
2023-04-09T15:38:14.928Z,58.96
2023-04-09T15:40:42.591Z,61.84
2023-04-09T15:43:09.172Z,61.81
2023-04-09T15:45:35.797Z,62.28
2023-04-09T15:48:02.450Z,66.09
2023-04-09T15:50:29.182Z,64.94
2023-04-09T15:52:56.284Z,64.40
2023-04-09T15:55:26.823Z,61.76
2023-04-09T15:57:55.133Z,61.29
2023-04-09T16:00:22.241Z,63.04
2023-04-09T16:02:48.780Z,62.16
2023-04-09T16:05:15.606Z,62.98
2023-04-09T16:07:42.833Z,63.09
2023-04-09T16:10:09.741Z,61.88
2023-04-09T16:12:36.445Z,60.76
2023-04-09T16:15:03.172Z,60.88
2023-04-09T16:17:30.789Z,62.09
2023-04-09T16:19:57.519Z,61.01
2023-04-09T16:22:24.165Z,60.24
2023-04-09T16:24:50.861Z,59.82
2023-04-09T16:27:17.540Z,60.11
2023-04-09T16:29:44.243Z,61.51
2023-04-09T16:32:11.031Z,62.97
2023-04-09T16:34:37.686Z,59.53
2023-04-09T16:37:04.317Z,60.16
2023-04-09T16:39:31.058Z,60.16
2023-04-09T16:42:02.173Z,59.66
2023-04-09T16:44:28.814Z,60.64
2023-04-09T16:46:56.450Z,60.18
2023-04-09T16:49:23.123Z,59.56
2023-04-09T16:51:51.886Z,58.50
2023-04-09T16:54:18.763Z,58.89
2023-04-09T16:56:45.391Z,57.12
2023-04-09T16:59:12.236Z,57.80
2023-04-09T17:01:38.877Z,59.28
2023-04-09T17:04:05.648Z,59.53
2023-04-09T17:06:32.322Z,61.93
2023-04-09T17:08:59.050Z,61.87
2023-04-09T17:11:25.852Z,61.72
2023-04-09T17:13:52.546Z,63.44
2023-04-09T17:16:19.174Z,63.46
2023-04-09T17:18:45.824Z,64.57
2023-04-09T17:21:12.632Z,64.23
2023-04-09T17:23:39.207Z,64.24
2023-04-09T17:26:08.835Z,64.61
2023-04-09T17:28:36.090Z,63.22
2023-04-09T17:31:02.761Z,63.31
2023-04-09T17:33:29.372Z,62.82
2023-04-09T17:35:57.660Z,63.49
2023-04-09T17:38:25.253Z,63.56
2023-04-09T17:40:53.539Z,62.27
2023-04-09T17:43:20.322Z,61.99
2023-04-09T17:45:46.999Z,61.41
2023-04-09T17:48:13.687Z,61.22
2023-04-09T17:50:40.538Z,61.19
2023-04-09T17:53:07.574Z,61.89
2023-04-09T17:55:34.300Z,63.29
2023-04-09T17:58:01.017Z,62.38
2023-04-09T18:00:27.793Z,63.01
2023-04-09T18:02:54.644Z,62.41
2023-04-09T18:05:23.000Z,61.59
2023-04-09T18:07:49.840Z,60.97
2023-04-09T18:10:16.612Z,60.85
2023-04-09T18:12:43.304Z,63.32
2023-04-09T18:15:10.479Z,62.58
2023-04-09T18:17:37.188Z,62.18
2023-04-09T18:20:04.099Z,60.97
2023-04-09T18:22:30.820Z,60.41
2023-04-09T18:24:57.513Z,60.85
2023-04-09T18:27:24.120Z,60.05
2023-04-09T18:29:50.690Z,59.47
2023-04-09T18:32:19.784Z,59.89
2023-04-09T18:34:47.776Z,60.43
2023-04-09T18:37:15.151Z,59.92
2023-04-09T18:39:41.877Z,59.22
2023-04-09T18:42:08.500Z,59.65
2023-04-09T18:44:37.541Z,58.99
2023-04-09T18:47:05.830Z,58.74
2023-04-09T18:49:33.619Z,58.75
2023-04-09T18:52:00.876Z,58.70
2023-04-09T18:54:27.794Z,58.32
2023-04-09T18:56:54.568Z,59.05
2023-04-09T18:59:21.903Z,60.37
2023-04-09T19:01:48.801Z,58.78
2023-04-09T19:04:15.691Z,59.18
2023-04-09T19:06:46.223Z,59.61
2023-04-09T19:09:12.954Z,58.54
2023-04-09T19:11:39.567Z,59.85
2023-04-09T19:14:06.249Z,58.20
2023-04-09T19:16:32.895Z,59.01
2023-04-09T19:18:59.640Z,58.03
2023-04-09T19:21:26.576Z,58.12
2023-04-09T19:23:53.227Z,58.42
2023-04-09T19:26:19.868Z,58.42
2023-04-09T19:28:46.904Z,57.25
2023-04-09T19:31:14.590Z,56.60
2023-04-09T19:33:41.264Z,55.99
2023-04-09T19:36:08.349Z,57.50
2023-04-09T19:38:35.010Z,56.44
2023-04-09T19:41:01.618Z,55.65
2023-04-09T19:43:28.279Z,56.39
2023-04-09T19:45:54.959Z,56.87
2023-04-09T19:48:21.725Z,57.44
2023-04-09T19:50:49.080Z,57.08
2023-04-09T19:53:15.811Z,58.92
2023-04-09T19:55:42.448Z,58.60
2023-04-09T19:58:09.079Z,58.46
2023-04-09T20:00:37.026Z,58.18
2023-04-09T20:03:05.802Z,62.79
2023-04-09T20:05:32.771Z,61.17
2023-04-09T20:07:59.473Z,60.81
2023-04-09T20:10:26.245Z,60.10
2023-04-09T20:12:52.830Z,58.79
2023-04-09T20:15:22.584Z,58.27
2023-04-09T20:17:50.606Z,59.12
2023-04-09T20:20:19.907Z,59.58
2023-04-09T20:22:55.602Z,58.92
2023-04-09T20:25:23.212Z,59.48
2023-04-09T20:27:52.438Z,59.26
2023-04-09T20:30:19.125Z,59.11
2023-04-09T20:32:45.779Z,59.62
2023-04-09T20:35:13.583Z,59.64
2023-04-09T20:37:40.385Z,59.57
2023-04-09T20:40:07.498Z,60.91
2023-04-09T20:42:34.160Z,58.81
2023-04-09T20:45:01.784Z,58.52
2023-04-09T20:47:28.787Z,59.47
2023-04-09T20:49:59.717Z,61.36
2023-04-09T20:52:29.424Z,62.52
2023-04-09T20:54:59.047Z,61.80
2023-04-09T20:57:25.642Z,60.74
2023-04-09T20:59:53.895Z,59.62
2023-04-09T21:02:21.302Z,60.80
2023-04-09T21:04:48.115Z,61.71
2023-04-09T21:07:14.813Z,62.65
2023-04-09T21:09:41.616Z,62.24
2023-04-09T21:12:08.257Z,60.71
2023-04-09T21:14:34.872Z,60.61
2023-04-09T21:17:02.308Z,59.67
2023-04-09T21:19:29.016Z,59.29
2023-04-09T21:21:55.586Z,58.34
2023-04-09T21:24:23.047Z,60.07
2023-04-09T21:26:52.006Z,59.73
2023-04-09T21:29:21.323Z,59.67
2023-04-09T21:31:48.949Z,60.69
2023-04-09T21:34:15.920Z,60.52
2023-04-09T21:36:44.910Z,61.53
2023-04-09T21:39:12.119Z,62.48
2023-04-09T21:41:38.953Z,61.74
2023-04-09T21:44:08.496Z,60.40
2023-04-09T21:46:37.043Z,62.32
2023-04-09T21:49:04.462Z,63.44
2023-04-09T21:51:32.324Z,63.22
2023-04-09T21:54:04.344Z,62.88
2023-04-09T21:56:31.987Z,62.59
2023-04-09T21:58:58.746Z,60.86
2023-04-09T22:01:29.311Z,64.34
2023-04-09T22:03:57.909Z,62.75
2023-04-09T22:06:24.713Z,61.86
2023-04-09T22:08:56.208Z,61.24
2023-04-09T22:11:28.488Z,61.59
2023-04-09T22:13:58.628Z,61.99
2023-04-09T22:16:26.375Z,63.22
2023-04-09T22:18:54.193Z,61.46
2023-04-09T22:21:21.637Z,61.08
2023-04-09T22:23:48.331Z,60.71
2023-04-09T22:26:15.060Z,61.35
2023-04-09T22:28:41.630Z,62.33
2023-04-09T22:31:08.562Z,63.30
2023-04-09T22:33:35.444Z,61.89
2023-04-09T22:36:02.345Z,62.13
2023-04-09T22:38:29.105Z,60.89
2023-04-09T22:40:56.067Z,62.12
2023-04-09T22:43:23.273Z,60.69
2023-04-09T22:45:52.110Z,60.70
2023-04-09T22:48:19.725Z,60.85
2023-04-09T22:50:47.078Z,60.22
2023-04-09T22:53:20.848Z,57.62
2023-04-09T22:55:50.860Z,56.21
2023-04-09T22:58:18.800Z,58.15
2023-04-09T23:00:47.183Z,58.65
2023-04-09T23:03:14.345Z,58.09
2023-04-09T23:05:41.215Z,57.82
2023-04-09T23:08:08.021Z,57.68
2023-04-09T23:10:34.917Z,56.86
2023-04-09T23:13:02.216Z,56.88
2023-04-09T23:15:28.898Z,56.05
2023-04-09T23:17:56.213Z,55.72
2023-04-09T23:20:23.296Z,55.59
2023-04-09T23:22:50.321Z,55.15
2023-04-09T23:25:17.315Z,54.42
2023-04-09T23:27:44.230Z,53.95
2023-04-09T23:30:11.626Z,54.25
2023-04-09T23:32:38.433Z,56.05
2023-04-09T23:35:05.509Z,55.71
2023-04-09T23:37:32.226Z,55.58
2023-04-09T23:39:58.876Z,54.86
2023-04-09T23:42:29.928Z,55.01
2023-04-09T23:44:56.559Z,54.07
2023-04-09T23:47:23.258Z,52.94
2023-04-09T23:49:50.031Z,54.19
2023-04-09T23:52:16.654Z,54.70
2023-04-09T23:54:49.184Z,54.59
2023-04-09T23:57:16.207Z,54.50
2023-04-09T23:59:42.869Z,56.47
